createdAt,value
2022-08-06T00:00:07.945Z,96.80
2022-08-06T00:02:35.270Z,97.10
2022-08-06T00:05:05.897Z,97.10
2022-08-06T00:07:44.956Z,97.40
2022-08-06T00:10:17.131Z,97.70
2022-08-06T00:12:45.938Z,97.90
2022-08-06T00:15:16.153Z,97.90
2022-08-06T00:17:47.524Z,98.30
2022-08-06T00:20:25.328Z,98.40
2022-08-06T00:22:59.909Z,98.50
2022-08-06T00:25:28.372Z,98.80
2022-08-06T00:27:55.577Z,99.10
2022-08-06T00:30:22.827Z,98.90
2022-08-06T00:32:53.102Z,99.20
2022-08-06T00:35:24.018Z,99.50
2022-08-06T00:37:58.479Z,99.90
2022-08-06T00:40:31.043Z,99.90
2022-08-06T00:43:02.376Z,99.90
2022-08-06T00:45:38.350Z,99.90
2022-08-06T00:48:30.918Z,99.90
2022-08-06T00:51:01.602Z,99.90
2022-08-06T00:53:34.308Z,99.90
2022-08-06T00:56:08.584Z,99.90
2022-08-06T00:58:39.568Z,99.90
2022-08-06T01:01:17.279Z,99.90
2022-08-06T01:03:51.261Z,99.90
2022-08-06T01:06:54.999Z,99.90
2022-08-06T01:09:07.519Z,99.90
2022-08-06T01:11:34.979Z,99.90
2022-08-06T01:14:05.601Z,99.90
2022-08-06T01:16:45.779Z,99.90
2022-08-06T01:21:21.100Z,99.90
2022-08-06T01:23:03.088Z,99.90
2022-08-06T01:25:54.997Z,99.90
2022-08-06T01:28:28.343Z,99.90
2022-08-06T01:31:08.478Z,99.90
2022-08-06T01:33:42.205Z,99.90
2022-08-06T01:36:28.401Z,99.90
2022-08-06T01:38:59.602Z,99.90
2022-08-06T01:41:56.277Z,99.90
2022-08-06T01:44:34.383Z,99.90
2022-08-06T01:47:16.210Z,99.90
2022-08-06T01:50:00.958Z,99.90
2022-08-06T01:52:37.039Z,99.90
2022-08-06T01:55:09.822Z,99.90
2022-08-06T01:58:07.500Z,99.90
2022-08-06T02:00:40.948Z,99.90
2022-08-06T02:03:49.343Z,99.90
2022-08-06T02:06:34.074Z,99.90
2022-08-06T02:09:21.697Z,99.90
2022-08-06T02:12:07.583Z,99.90
2022-08-06T02:14:43.446Z,99.90
2022-08-06T02:17:14.836Z,99.90
2022-08-06T02:20:12.136Z,99.90
2022-08-06T02:22:39.316Z,99.90
2022-08-06T02:25:14.932Z,99.90
2022-08-06T02:27:58.910Z,99.90
2022-08-06T02:30:36.788Z,99.90
2022-08-06T02:33:05.337Z,99.90
2022-08-06T02:35:37.757Z,99.90
2022-08-06T02:38:31.049Z,99.90
2022-08-06T02:41:12.185Z,99.90
2022-08-06T02:43:48.464Z,99.90
2022-08-06T02:46:27.268Z,99.90
2022-08-06T02:49:12.828Z,99.90
2022-08-06T02:52:11.346Z,99.90
2022-08-06T02:55:07.328Z,99.90
2022-08-06T02:57:50.886Z,99.90
2022-08-06T03:00:19.976Z,99.90
2022-08-06T03:03:01.431Z,99.90
2022-08-06T03:05:56.191Z,99.90
2022-08-06T03:08:22.181Z,99.90
2022-08-06T03:10:56.342Z,99.90
2022-08-06T03:13:23.959Z,99.90
2022-08-06T03:16:00.412Z,99.90
2022-08-06T03:18:30.338Z,99.90
2022-08-06T03:20:58.817Z,99.90
2022-08-06T03:23:27.591Z,99.90
2022-08-06T03:25:56.732Z,99.90
2022-08-06T03:28:35.164Z,99.90
2022-08-06T03:31:04.104Z,99.90
2022-08-06T03:33:53.316Z,99.90
2022-08-06T03:36:20.143Z,99.90
2022-08-06T03:38:55.842Z,99.90
2022-08-06T03:41:29.107Z,99.90
2022-08-06T03:44:03.811Z,99.90
2022-08-06T03:46:59.579Z,99.90
2022-08-06T03:50:01.022Z,99.90
2022-08-06T03:52:31.889Z,99.90
2022-08-06T03:55:05.394Z,99.90
2022-08-06T03:57:40.965Z,99.90
2022-08-06T04:00:17.095Z,99.90
2022-08-06T04:02:52.099Z,99.90
2022-08-06T04:05:23.443Z,99.90
2022-08-06T04:07:56.605Z,99.90
2022-08-06T04:10:33.359Z,99.90
2022-08-06T04:13:38.037Z,99.90
2022-08-06T04:15:53.173Z,99.90
2022-08-06T04:18:33.693Z,99.90
2022-08-06T04:22:57.449Z,99.90
2022-08-06T04:24:09.840Z,99.90
2022-08-06T04:26:39.378Z,99.90
2022-08-06T04:29:16.777Z,99.90
2022-08-06T04:32:12.459Z,99.90
2022-08-06T04:34:48.203Z,99.90
2022-08-06T04:37:22.840Z,99.90
2022-08-06T04:39:50.958Z,99.90
2022-08-06T04:42:23.369Z,99.90
2022-08-06T04:44:59.668Z,99.90
2022-08-06T04:47:41.642Z,99.90
2022-08-06T04:50:14.082Z,99.90
2022-08-06T04:52:48.869Z,99.90
2022-08-06T04:55:25.257Z,99.90
2022-08-06T04:58:11.737Z,99.90
2022-08-06T05:00:59.882Z,99.90
2022-08-06T05:04:07.001Z,99.90
2022-08-06T05:06:34.509Z,99.90
2022-08-06T05:09:07.254Z,99.90
2022-08-06T05:12:07.092Z,99.90
2022-08-06T05:14:42.311Z,99.90
2022-08-06T05:17:14.407Z,99.90
2022-08-06T05:19:54.026Z,99.90
2022-08-06T05:22:51.699Z,99.90
2022-08-06T05:25:19.350Z,99.90
2022-08-06T05:28:04.390Z,99.90
2022-08-06T05:30:44.937Z,99.90
2022-08-06T05:33:16.740Z,99.90
2022-08-06T05:35:45.915Z,99.90
2022-08-06T05:38:32.034Z,99.90
2022-08-06T05:41:03.008Z,99.90
2022-08-06T05:43:59.498Z,99.90
2022-08-06T05:46:21.362Z,99.90
2022-08-06T05:49:02.244Z,99.90
2022-08-06T05:51:56.922Z,99.90
2022-08-06T05:54:31.892Z,99.90
2022-08-06T05:57:16.588Z,99.90
2022-08-06T05:59:57.581Z,99.90
2022-08-06T06:02:27.824Z,99.90
2022-08-06T06:06:02.754Z,99.90
2022-08-06T06:08:09.659Z,99.90
2022-08-06T06:10:33.588Z,99.90
2022-08-06T06:13:03.600Z,99.90
2022-08-06T06:16:00.294Z,99.90
2022-08-06T06:18:37.257Z,99.90
2022-08-06T06:21:31.830Z,99.90
2022-08-06T06:24:19.677Z,99.90
2022-08-06T06:26:50.004Z,99.90
2022-08-06T06:30:02.548Z,99.90
2022-08-06T06:32:41.191Z,99.90
2022-08-06T06:35:32.617Z,99.90
2022-08-06T06:38:19.399Z,99.90
2022-08-06T06:41:20.065Z,99.90
2022-08-06T06:44:02.837Z,99.90
2022-08-06T06:46:54.487Z,99.90
2022-08-06T06:50:01.301Z,99.90
2022-08-06T06:52:42.638Z,99.90
2022-08-06T06:55:56.100Z,99.90
2022-08-06T06:58:38.990Z,99.90
2022-08-06T07:01:28.550Z,99.90
2022-08-06T07:03:58.658Z,99.90
2022-08-06T07:06:32.048Z,99.90
2022-08-06T07:09:39.345Z,99.90
2022-08-06T07:12:19.632Z,99.90
2022-08-06T07:14:55.261Z,99.90
2022-08-06T07:17:45.654Z,99.90
2022-08-06T07:20:17.706Z,99.90
2022-08-06T07:24:03.675Z,99.90
2022-08-06T07:25:41.446Z,99.90
2022-08-06T07:28:27.577Z,99.90
2022-08-06T07:30:57.835Z,99.90
2022-08-06T07:34:00.259Z,99.90
2022-08-06T07:36:26.417Z,99.90
2022-08-06T07:39:03.578Z,99.90
2022-08-06T07:41:50.704Z,99.90
2022-08-06T07:44:22.358Z,99.90
2022-08-06T07:46:56.733Z,99.90
2022-08-06T07:49:31.697Z,99.90
2022-08-06T07:52:17.986Z,99.90
2022-08-06T07:54:46.862Z,99.90
2022-08-06T07:57:19.760Z,99.90
2022-08-06T07:59:55.604Z,99.90
2022-08-06T08:02:29.571Z,99.90
2022-08-06T08:05:16.705Z,99.90
2022-08-06T08:07:57.266Z,99.90
2022-08-06T08:10:28.520Z,99.90
2022-08-06T08:12:58.047Z,99.90
2022-08-06T08:15:32.478Z,99.90
2022-08-06T08:18:01.740Z,99.90
2022-08-06T08:20:34.295Z,99.90
2022-08-06T08:23:05.975Z,99.90
2022-08-06T08:25:42.146Z,99.90
2022-08-06T08:28:14.834Z,99.90
2022-08-06T08:30:48.072Z,99.90
2022-08-06T08:33:21.076Z,99.90
2022-08-06T08:35:59.625Z,99.90
2022-08-06T08:38:32.581Z,99.90
2022-08-06T08:41:22.175Z,99.90
2022-08-06T08:44:00.399Z,99.90
2022-08-06T08:46:52.247Z,99.90
2022-08-06T08:49:46.864Z,99.80
2022-08-06T08:52:18.295Z,99.70
2022-08-06T08:54:52.195Z,99.70
2022-08-06T08:58:41.655Z,99.50
2022-08-06T09:00:10.381Z,99.40
2022-08-06T09:02:48.225Z,99.20
2022-08-06T09:05:17.806Z,99.20
2022-08-06T09:07:52.590Z,99.30
2022-08-06T09:10:33.123Z,98.80
2022-08-06T09:13:03.724Z,98.50
2022-08-06T09:15:51.582Z,98.40
2022-08-06T09:18:27.144Z,97.90
2022-08-06T09:20:55.692Z,98.00
2022-08-06T09:23:25.270Z,97.50
2022-08-06T09:25:57.858Z,96.90
2022-08-06T09:28:42.256Z,96.50
2022-08-06T09:31:21.289Z,96.30
2022-08-06T09:34:30.064Z,96.20
2022-08-06T09:36:51.991Z,95.90
2022-08-06T09:40:00.213Z,96.20
2022-08-06T09:42:41.592Z,96.30
2022-08-06T09:45:16.059Z,96.40
2022-08-06T09:47:57.662Z,96.10
2022-08-06T09:50:43.956Z,95.50
2022-08-06T09:53:14.310Z,94.90
2022-08-06T09:55:43.226Z,94.20
2022-08-06T09:58:11.714Z,94.10
2022-08-06T10:00:39.980Z,93.70
2022-08-06T10:04:04.448Z,93.60
2022-08-06T10:06:10.831Z,94.10
2022-08-06T10:08:43.230Z,93.10
2022-08-06T10:11:13.331Z,92.10
2022-08-06T10:13:48.676Z,91.30
2022-08-06T10:16:28.897Z,90.70
2022-08-06T10:19:00.875Z,91.20
2022-08-06T10:21:41.406Z,91.00
2022-08-06T10:24:11.854Z,90.20
2022-08-06T10:26:43.267Z,90.70
2022-08-06T10:29:11.519Z,90.30
2022-08-06T10:31:39.782Z,90.10
2022-08-06T10:34:30.907Z,87.60
2022-08-06T10:37:10.566Z,87.10
2022-08-06T10:40:07.677Z,85.20
2022-08-06T10:42:40.384Z,85.40
2022-08-06T10:45:14.320Z,83.70
2022-08-06T10:49:01.031Z,83.20
2022-08-06T10:50:44.703Z,83.20
2022-08-06T10:53:59.317Z,82.10
2022-08-06T10:56:18.217Z,81.60
2022-08-06T10:58:54.387Z,82.00
2022-08-06T11:01:59.560Z,82.00
2022-08-06T11:04:45.457Z,79.20
2022-08-06T11:08:09.609Z,78.40
2022-08-06T11:10:28.559Z,77.20
2022-08-06T11:13:04.127Z,75.20
2022-08-06T11:15:39.300Z,77.30
2022-08-06T11:18:12.327Z,75.80
2022-08-06T11:20:48.752Z,74.80
2022-08-06T11:23:26.215Z,73.20
2022-08-06T11:26:05.258Z,74.10
2022-08-06T11:28:32.761Z,73.40
2022-08-06T11:31:05.932Z,73.60
2022-08-06T11:33:39.490Z,72.70
2022-08-06T11:36:14.395Z,72.90
2022-08-06T11:38:51.370Z,72.70
2022-08-06T11:41:51.063Z,71.80
2022-08-06T11:44:21.539Z,71.10
2022-08-06T11:47:24.565Z,70.00
2022-08-06T11:50:02.068Z,69.70
2022-08-06T11:52:37.392Z,70.10
2022-08-06T11:55:23.161Z,69.00
2022-08-06T11:58:23.210Z,67.20
2022-08-06T12:01:03.807Z,66.90
2022-08-06T12:03:52.780Z,65.20
2022-08-06T12:06:27.011Z,64.90
2022-08-06T12:09:23.671Z,63.20
2022-08-06T12:12:44.583Z,65.10
2022-08-06T12:15:20.154Z,63.50
2022-08-06T12:18:19.023Z,63.50
2022-08-06T12:20:53.991Z,62.10
2022-08-06T12:23:30.302Z,63.10
2022-08-06T12:26:13.272Z,63.50
2022-08-06T12:29:02.205Z,61.70
2022-08-06T12:31:44.140Z,62.30
2022-08-06T12:34:31.295Z,63.00
2022-08-06T12:37:03.252Z,63.90
2022-08-06T12:40:02.501Z,64.50
2022-08-06T12:42:54.048Z,63.20
2022-08-06T12:46:04.397Z,66.00
2022-08-06T12:48:13.559Z,58.90
2022-08-06T12:50:45.339Z,58.20
2022-08-06T12:53:15.105Z,57.70
2022-08-06T12:55:56.784Z,55.10
2022-08-06T12:58:42.206Z,53.60
2022-08-06T13:02:07.369Z,51.50
2022-08-06T13:04:10.630Z,52.30
2022-08-06T13:06:46.985Z,53.10
2022-08-06T13:09:34.240Z,53.70
2022-08-06T13:12:44.802Z,55.40
2022-08-06T13:15:23.074Z,55.80
2022-08-06T13:18:41.533Z,55.40
2022-08-06T13:21:02.821Z,52.10
2022-08-06T13:23:35.573Z,49.90
2022-08-06T13:26:26.264Z,45.50
2022-08-06T13:30:34.617Z,45.60
2022-08-06T13:32:19.719Z,47.40
2022-08-06T13:34:58.457Z,48.30
2022-08-06T13:37:55.779Z,49.40
2022-08-06T13:40:57.166Z,50.50
2022-08-06T13:43:54.151Z,51.60
2022-08-06T13:46:27.902Z,52.60
2022-08-06T13:49:01.303Z,53.00
2022-08-06T13:51:34.695Z,50.50
2022-08-06T13:54:16.547Z,46.90
2022-08-06T13:56:49.044Z,45.80
2022-08-06T13:59:19.197Z,44.20
2022-08-06T14:01:48.397Z,42.40
2022-08-06T14:04:21.106Z,41.20
2022-08-06T14:06:49.629Z,39.60
2022-08-06T14:09:22.148Z,39.70
2022-08-06T14:12:01.710Z,40.20
2022-08-06T14:14:30.951Z,41.10
2022-08-06T14:17:00.132Z,43.00
2022-08-06T14:20:15.645Z,44.40
2022-08-06T14:22:16.415Z,45.50
2022-08-06T14:24:53.049Z,46.80
2022-08-06T14:27:23.945Z,48.30
2022-08-06T14:30:28.367Z,49.00
2022-08-06T14:32:39.025Z,46.30
2022-08-06T14:35:07.867Z,43.80
2022-08-06T14:37:50.344Z,41.50
2022-08-06T14:40:59.299Z,39.30
2022-08-06T14:43:54.768Z,38.60
2022-08-06T14:46:31.847Z,38.90
2022-08-06T14:49:05.570Z,41.00
2022-08-06T14:52:19.883Z,43.00
2022-08-06T14:54:32.386Z,43.80
2022-08-06T14:57:15.124Z,46.60
2022-08-06T14:59:48.720Z,46.80
2022-08-06T15:02:24.007Z,47.60
2022-08-06T15:04:53.231Z,48.50
2022-08-06T15:07:24.978Z,48.20
2022-08-06T15:10:05.764Z,48.80
2022-08-06T15:12:48.691Z,49.90
2022-08-06T15:15:18.932Z,48.00
2022-08-06T15:18:11.310Z,45.90
2022-08-06T15:20:38.315Z,46.80
2022-08-06T15:23:05.944Z,45.00
2022-08-06T15:25:59.628Z,42.90
2022-08-06T15:28:20.100Z,41.70
2022-08-06T15:30:47.532Z,39.90
2022-08-06T15:33:15.584Z,38.20
2022-08-06T15:35:57.980Z,38.40
2022-08-06T15:38:32.434Z,38.10
2022-08-06T15:41:00.634Z,38.00
2022-08-06T15:43:28.381Z,36.90
2022-08-06T15:46:12.140Z,36.90
2022-08-06T15:48:46.856Z,36.80
2022-08-06T15:51:28.632Z,35.90
2022-08-06T15:53:58.747Z,36.00
2022-08-06T15:56:38.553Z,35.80
2022-08-06T15:59:11.833Z,36.20
2022-08-06T16:01:52.251Z,35.60
2022-08-06T16:04:28.512Z,34.30
2022-08-06T16:06:56.794Z,34.20
2022-08-06T16:09:28.200Z,35.00
2022-08-06T16:11:58.574Z,35.30
2022-08-06T16:14:32.890Z,36.10
2022-08-06T16:17:06.450Z,37.60
2022-08-06T16:19:49.157Z,39.30
2022-08-06T16:22:19.057Z,38.90
2022-08-06T16:24:46.269Z,39.10
2022-08-06T16:27:16.963Z,39.20
2022-08-06T16:29:48.378Z,39.30
2022-08-06T16:32:21.401Z,38.70
2022-08-06T16:34:59.154Z,38.40
2022-08-06T16:37:33.312Z,38.10
2022-08-06T16:40:09.192Z,38.50
2022-08-06T16:42:36.489Z,38.20
2022-08-06T16:50:40.923Z,38.20
2022-08-06T16:55:56.136Z,39.30
2022-08-06T16:58:34.454Z,38.30
2022-08-06T17:02:20.066Z,38.60
2022-08-06T17:03:59.001Z,39.30
2022-08-06T17:06:30.355Z,40.40
2022-08-06T17:08:59.495Z,41.80
2022-08-06T17:11:46.061Z,42.90
2022-08-06T17:14:17.153Z,44.20
2022-08-06T17:16:47.803Z,45.50
2022-08-06T17:19:16.609Z,46.50
2022-08-06T17:21:58.248Z,47.30
2022-08-06T17:24:32.858Z,47.40
2022-08-06T17:27:08.563Z,48.60
2022-08-06T17:29:45.915Z,49.50
2022-08-06T17:32:30.267Z,49.80
2022-08-06T17:34:59.822Z,50.60
2022-08-06T17:37:42.914Z,51.10
2022-08-06T17:40:31.059Z,50.60
2022-08-06T17:42:29.000Z,38.70
2022-08-06T17:43:54.012Z,49.80
2022-08-06T17:46:02.522Z,48.70
2022-08-06T17:48:46.964Z,47.80
2022-08-06T17:51:21.094Z,48.00
2022-08-06T17:53:54.719Z,48.20
2022-08-06T17:56:29.597Z,48.50
2022-08-06T17:59:11.174Z,48.40
2022-08-06T18:01:50.676Z,48.20
2022-08-06T18:04:32.849Z,48.10
2022-08-06T18:07:12.058Z,48.00
2022-08-06T18:10:09.137Z,48.60
2022-08-06T18:12:49.154Z,48.60
2022-08-06T18:15:18.030Z,49.30
2022-08-06T18:18:04.282Z,49.70
2022-08-06T18:20:39.031Z,50.30
2022-08-06T18:23:08.002Z,52.00
2022-08-06T18:25:55.610Z,52.00
2022-08-06T18:28:31.690Z,52.20
2022-08-06T18:31:09.307Z,53.00
2022-08-06T18:33:38.040Z,53.50
2022-08-06T18:36:10.285Z,53.90
2022-08-06T18:38:38.321Z,55.20
2022-08-06T18:41:15.304Z,56.40
2022-08-06T18:43:53.932Z,58.10
2022-08-06T18:47:02.373Z,58.20
2022-08-06T18:49:20.732Z,59.10
2022-08-06T18:51:59.962Z,60.20
2022-08-06T18:54:26.983Z,60.80
2022-08-06T18:56:55.067Z,61.20
2022-08-06T18:59:28.409Z,62.00
2022-08-06T19:01:59.718Z,62.50
2022-08-06T19:04:29.843Z,63.00
2022-08-06T19:07:02.982Z,63.20
2022-08-06T19:09:33.927Z,63.50
2022-08-06T19:12:12.446Z,63.80
2022-08-06T19:14:44.000Z,64.30
2022-08-06T19:17:14.706Z,64.70
2022-08-06T19:19:47.251Z,64.80
2022-08-06T19:22:29.108Z,65.00
2022-08-06T19:24:57.174Z,65.30
2022-08-06T19:28:07.383Z,65.60
2022-08-06T19:30:40.980Z,65.60
2022-08-06T19:32:58.944Z,65.60
2022-08-06T19:36:06.768Z,65.80
2022-08-06T19:38:13.689Z,66.00
2022-08-06T19:40:48.503Z,66.30
2022-08-06T19:44:25.085Z,66.30
2022-08-06T19:46:29.870Z,66.50
2022-08-06T19:48:55.620Z,66.80
2022-08-06T19:52:01.938Z,66.90
2022-08-06T19:54:10.621Z,67.00
2022-08-06T19:56:42.355Z,67.00
2022-08-06T20:00:50.323Z,67.30
2022-08-06T20:02:08.517Z,67.60
2022-08-06T20:04:42.255Z,68.00
2022-08-06T20:07:24.268Z,68.50
2022-08-06T20:10:01.386Z,68.70
2022-08-06T20:12:38.302Z,68.70
2022-08-06T20:15:11.545Z,68.90
2022-08-06T20:17:46.036Z,69.20
2022-08-06T20:20:28.684Z,69.20
2022-08-06T20:23:08.719Z,69.00
2022-08-06T20:26:09.173Z,69.20
2022-08-06T20:29:07.293Z,69.20
2022-08-06T20:31:21.454Z,69.40
2022-08-06T20:33:58.927Z,69.40
2022-08-06T20:36:29.302Z,69.90
2022-08-06T20:38:57.201Z,70.00
2022-08-06T20:41:58.781Z,70.30
2022-08-06T20:44:11.610Z,70.40
2022-08-06T20:49:28.999Z,71.40
2022-08-06T20:51:56.605Z,71.30
2022-08-06T20:54:32.578Z,71.60
2022-08-06T20:57:00.642Z,72.00
2022-08-06T20:59:34.077Z,72.30
2022-08-06T21:02:05.025Z,72.60
2022-08-06T21:05:13.709Z,72.80
2022-08-06T21:07:21.158Z,72.60
2022-08-06T21:10:11.287Z,72.40
2022-08-06T21:12:58.844Z,72.40
2022-08-06T21:15:53.947Z,73.00
2022-08-06T21:18:14.438Z,73.30
2022-08-06T21:20:50.755Z,73.60
2022-08-06T21:23:41.565Z,73.50
2022-08-06T21:26:11.273Z,73.20
2022-08-06T21:28:42.332Z,73.80
2022-08-06T21:31:10.744Z,73.90
2022-08-06T21:33:42.818Z,74.10
2022-08-06T21:36:19.638Z,74.10
2022-08-06T21:38:46.499Z,74.20
2022-08-06T21:41:54.613Z,74.10
2022-08-06T21:44:18.132Z,74.30
2022-08-06T21:46:59.126Z,74.90
2022-08-06T21:49:58.752Z,75.20
2022-08-06T21:52:27.567Z,75.60
2022-08-06T21:54:59.743Z,75.80
2022-08-06T21:57:48.352Z,76.70
2022-08-06T22:00:40.493Z,76.80
2022-08-06T22:04:34.674Z,76.90
2022-08-06T22:06:22.075Z,77.30
2022-08-06T22:08:53.053Z,77.40
2022-08-06T22:12:38.938Z,77.60
2022-08-06T22:14:11.848Z,77.70
2022-08-06T22:16:42.790Z,78.10
2022-08-06T22:19:14.237Z,78.30
2022-08-06T22:21:50.358Z,78.60
2022-08-06T22:24:19.823Z,78.60
2022-08-06T22:26:46.963Z,78.90
2022-08-06T22:29:18.136Z,79.70
2022-08-06T22:31:56.644Z,80.00
2022-08-06T22:34:36.552Z,80.30
2022-08-06T22:37:06.298Z,80.40
2022-08-06T22:39:34.668Z,80.30
2022-08-06T22:42:07.932Z,80.60
2022-08-06T22:44:51.793Z,80.60
2022-08-06T22:47:23.408Z,81.10
2022-08-06T22:50:01.427Z,81.70
2022-08-06T22:52:59.278Z,82.00
2022-08-06T22:55:18.703Z,82.10
2022-08-06T22:58:47.474Z,82.60
2022-08-06T23:00:37.534Z,82.80
2022-08-06T23:03:13.284Z,83.10
2022-08-06T23:05:44.833Z,83.20
2022-08-06T23:08:17.710Z,83.70
2022-08-06T23:10:49.218Z,84.00
2022-08-06T23:13:25.474Z,84.00
2022-08-06T23:15:58.095Z,84.10
2022-08-06T23:18:28.756Z,85.30
2022-08-06T23:21:22.064Z,86.30
2022-08-06T23:23:55.092Z,86.80
2022-08-06T23:26:31.375Z,87.10
2022-08-06T23:29:08.646Z,87.10
2022-08-06T23:31:37.549Z,86.90
2022-08-06T23:34:33.394Z,87.10
2022-08-06T23:36:54.683Z,87.30
2022-08-06T23:39:28.942Z,87.90
2022-08-06T23:42:14.583Z,88.60
2022-08-06T23:44:49.777Z,89.10
2022-08-06T23:48:03.059Z,89.50
2022-08-06T23:50:07.534Z,90.00
2022-08-06T23:52:41.495Z,90.10
2022-08-06T23:55:11.588Z,90.30
2022-08-06T23:57:55.042Z,90.50
